createdAt,value
2024-03-11T00:02:24.286Z,6.63
2024-03-11T00:04:58.216Z,6.58
2024-03-11T00:10:38.185Z,6.54
2024-03-11T00:13:08.374Z,6.42
2024-03-11T00:15:36.543Z,6.56
2024-03-11T00:18:04.843Z,6.45
2024-03-11T00:20:34.698Z,6.48
2024-03-11T00:23:03.254Z,6.40
2024-03-11T00:25:31.503Z,6.42
2024-03-11T00:28:00.483Z,6.42
2024-03-11T00:30:28.614Z,6.35
2024-03-11T00:32:58.813Z,6.32
2024-03-11T00:35:27.140Z,6.27
2024-03-11T00:37:56.937Z,6.24
2024-03-11T00:40:27.185Z,6.14
2024-03-11T00:42:56.510Z,6.16
2024-03-11T00:45:25.256Z,6.19
2024-03-11T00:47:53.662Z,6.02
2024-03-11T00:50:23.060Z,5.93
2024-03-11T00:52:52.404Z,5.87
2024-03-11T00:55:22.170Z,5.94
2024-03-11T00:57:55.072Z,5.94
2024-03-11T01:00:24.105Z,5.93
2024-03-11T01:02:53.291Z,5.72
2024-03-11T01:05:22.663Z,5.72
2024-03-11T01:07:50.920Z,5.75
2024-03-11T01:10:19.985Z,5.78
2024-03-11T01:12:50.964Z,5.65
2024-03-11T01:15:19.193Z,5.67
2024-03-11T01:17:49.260Z,5.66
2024-03-11T01:20:18.482Z,5.78
2024-03-11T01:22:46.590Z,5.69
2024-03-11T01:25:43.402Z,5.69
2024-03-11T01:28:26.214Z,5.75
2024-03-11T01:30:55.324Z,5.73
2024-03-11T01:33:26.090Z,5.83
2024-03-11T01:36:00.524Z,5.78
2024-03-11T01:38:29.672Z,5.85
2024-03-11T01:41:09.272Z,5.86
2024-03-11T01:43:38.937Z,5.79
2024-03-11T01:46:08.188Z,5.91
2024-03-11T01:48:36.652Z,5.96
2024-03-11T01:51:30.959Z,6.05
2024-03-11T01:54:00.917Z,6.01
2024-03-11T01:56:50.673Z,6.09
2024-03-11T01:59:22.150Z,6.06
2024-03-11T02:01:55.938Z,6.06
2024-03-11T02:04:24.253Z,6.16
2024-03-11T02:06:59.602Z,6.19
2024-03-11T02:09:27.829Z,6.19
2024-03-11T02:11:57.108Z,6.21
2024-03-11T02:14:26.686Z,6.22
2024-03-11T02:16:55.322Z,6.25
2024-03-11T02:19:23.426Z,6.31
2024-03-11T02:21:53.168Z,6.30
2024-03-11T02:24:24.876Z,6.35
2024-03-11T02:26:53.255Z,6.34
2024-03-11T02:29:23.525Z,6.38
2024-03-11T02:31:51.898Z,6.38
2024-03-11T02:34:20.427Z,6.31
2024-03-11T02:36:52.090Z,6.42
2024-03-11T02:39:21.527Z,6.44
2024-03-11T02:41:56.825Z,6.40
2024-03-11T02:44:25.384Z,6.43
2024-03-11T02:47:00.463Z,6.47
2024-03-11T02:49:28.942Z,6.46
2024-03-11T02:51:56.984Z,6.49
2024-03-11T02:54:27.640Z,6.49
2024-03-11T02:56:58.089Z,6.52
2024-03-11T02:59:26.725Z,6.53
2024-03-11T03:01:55.846Z,6.48
2024-03-11T03:04:24.322Z,6.50
2024-03-11T03:06:52.296Z,6.54
2024-03-11T03:09:22.706Z,6.50
2024-03-11T03:11:51.963Z,6.51
2024-03-11T03:14:23.695Z,6.58
2024-03-11T03:16:51.772Z,6.57
2024-03-11T03:19:20.199Z,6.57
2024-03-11T03:21:54.668Z,6.57
2024-03-11T03:24:28.923Z,6.54
2024-03-11T03:27:04.016Z,6.58
2024-03-11T03:29:34.614Z,6.60
2024-03-11T03:32:02.962Z,6.63
2024-03-11T03:34:31.076Z,6.52
2024-03-11T03:37:05.211Z,6.59
2024-03-11T03:39:34.715Z,6.62
2024-03-11T03:42:02.788Z,6.59
2024-03-11T03:44:30.952Z,6.63
2024-03-11T03:47:01.976Z,6.62
2024-03-11T03:49:32.168Z,6.65
2024-03-11T03:52:01.525Z,6.62
2024-03-11T03:54:29.709Z,6.64
2024-03-11T03:56:57.769Z,6.60
2024-03-11T03:59:29.498Z,6.60
2024-03-11T04:01:57.664Z,6.64
2024-03-11T04:04:27.029Z,6.61
2024-03-11T04:06:55.214Z,6.57
2024-03-11T04:09:24.350Z,6.49
2024-03-11T04:11:52.469Z,6.62
2024-03-11T04:14:20.646Z,6.61
2024-03-11T04:16:49.036Z,6.62
2024-03-11T04:19:22.329Z,6.53
2024-03-11T04:21:52.042Z,6.51
2024-03-11T04:24:22.150Z,6.51
2024-03-11T04:26:52.090Z,6.45
2024-03-11T04:29:34.695Z,6.41
2024-03-11T04:32:04.071Z,6.38
2024-03-11T04:34:40.567Z,6.31
2024-03-11T04:37:10.241Z,6.30
2024-03-11T04:39:38.502Z,6.28
2024-03-11T04:42:09.044Z,6.33
2024-03-11T04:44:42.490Z,6.31
2024-03-11T04:47:11.231Z,6.26
2024-03-11T04:49:42.814Z,6.27
2024-03-11T04:52:15.706Z,6.19
2024-03-11T04:54:43.884Z,6.10
2024-03-11T04:57:11.876Z,6.09
2024-03-11T04:59:40.445Z,6.05
2024-03-11T05:02:09.865Z,6.01
2024-03-11T05:04:40.031Z,5.98
2024-03-11T05:07:10.261Z,5.96
2024-03-11T05:09:41.249Z,5.92
2024-03-11T05:12:10.750Z,5.92
2024-03-11T05:14:39.725Z,5.92
2024-03-11T05:17:08.226Z,5.93
2024-03-11T05:19:36.190Z,5.92
2024-03-11T05:22:04.555Z,5.94
2024-03-11T05:24:33.588Z,5.92
2024-03-11T05:27:03.133Z,5.84
2024-03-11T05:29:31.526Z,5.84
2024-03-11T05:31:59.989Z,5.88
2024-03-11T05:37:35.926Z,5.80
2024-03-11T05:40:07.645Z,5.77
2024-03-11T05:42:37.527Z,5.75
2024-03-11T05:45:07.901Z,5.67
2024-03-11T05:47:36.124Z,5.74
2024-03-11T05:50:05.184Z,5.63
2024-03-11T05:52:34.541Z,5.69
2024-03-11T05:55:10.223Z,5.72
2024-03-11T05:57:41.286Z,5.73
2024-03-11T06:00:12.903Z,5.74
2024-03-11T06:02:41.200Z,5.77
2024-03-11T06:05:10.049Z,5.72
2024-03-11T06:07:39.621Z,5.78
2024-03-11T06:10:09.639Z,5.75
2024-03-11T06:12:39.796Z,5.78
2024-03-11T06:15:08.900Z,5.74
2024-03-11T06:17:37.170Z,5.66
2024-03-11T06:20:10.710Z,5.71
2024-03-11T06:22:40.372Z,5.69
2024-03-11T06:25:09.435Z,5.69
2024-03-11T06:27:37.836Z,5.62
2024-03-11T06:30:09.006Z,5.71
2024-03-11T06:32:37.629Z,5.76
2024-03-11T06:35:07.121Z,5.77
2024-03-11T06:37:35.437Z,5.78
2024-03-11T06:40:04.494Z,5.77
2024-03-11T06:42:32.721Z,5.82
2024-03-11T06:45:01.857Z,5.82
2024-03-11T06:47:31.804Z,5.83
2024-03-11T06:50:14.212Z,5.88
2024-03-11T06:52:42.443Z,5.89
2024-03-11T06:55:12.780Z,6.04
2024-03-11T06:57:42.520Z,6.04
2024-03-11T07:00:25.941Z,6.05
2024-03-11T07:02:59.509Z,6.00
2024-03-11T07:05:28.765Z,6.14
2024-03-11T07:07:58.163Z,6.21
2024-03-11T07:10:34.587Z,6.23
2024-03-11T07:13:04.625Z,6.16
2024-03-11T07:15:38.195Z,6.33
2024-03-11T07:18:10.219Z,6.29
2024-03-11T07:20:39.488Z,6.39
2024-03-11T07:23:10.102Z,6.29
2024-03-11T07:25:39.379Z,6.30
2024-03-11T07:28:07.864Z,6.31
2024-03-11T07:30:36.373Z,6.36
2024-03-11T07:33:07.109Z,6.34
2024-03-11T07:35:38.761Z,6.43
2024-03-11T07:38:07.911Z,6.29
2024-03-11T07:40:37.161Z,6.36
2024-03-11T07:43:07.759Z,6.44
2024-03-11T07:45:36.361Z,6.59
2024-03-11T07:48:07.252Z,6.57
2024-03-11T07:50:36.371Z,6.59
2024-03-11T07:53:06.591Z,6.65
2024-03-11T07:55:37.070Z,6.74
2024-03-11T07:58:05.704Z,6.63
2024-03-11T08:00:37.910Z,6.60
2024-03-11T08:03:14.417Z,6.66
2024-03-11T08:05:45.657Z,6.90
2024-03-11T08:08:19.171Z,6.81
2024-03-11T08:10:52.082Z,6.74
2024-03-11T08:13:21.385Z,6.79
2024-03-11T08:15:50.519Z,6.86
2024-03-11T08:18:18.974Z,6.89
2024-03-11T08:20:48.608Z,7.02
2024-03-11T08:23:19.661Z,7.10
2024-03-11T08:25:50.530Z,7.09
2024-03-11T08:28:19.710Z,6.99
2024-03-11T08:30:48.245Z,7.13
2024-03-11T08:33:17.191Z,7.21
2024-03-11T08:35:45.982Z,7.40
2024-03-11T08:38:14.756Z,7.00
2024-03-11T08:40:55.529Z,7.10
2024-03-11T08:43:23.852Z,7.28
2024-03-11T08:45:52.750Z,7.45
2024-03-11T08:48:21.985Z,7.54
2024-03-11T08:50:52.495Z,7.50
2024-03-11T08:53:25.598Z,7.32
2024-03-11T08:55:55.390Z,7.51
2024-03-11T08:58:26.334Z,7.49
2024-03-11T09:00:57.240Z,7.06
2024-03-11T09:03:28.708Z,7.29
2024-03-11T09:08:40.198Z,7.21
2024-03-11T09:11:10.412Z,7.14
2024-03-11T09:13:42.333Z,7.03
2024-03-11T09:16:11.275Z,7.09
2024-03-11T09:18:44.633Z,6.92
2024-03-11T09:21:13.181Z,6.98
2024-03-11T09:23:41.503Z,6.84
2024-03-11T09:26:12.015Z,7.17
2024-03-11T09:28:40.213Z,7.25
2024-03-11T09:31:10.233Z,7.22
2024-03-11T09:33:40.631Z,7.05
2024-03-11T09:36:10.519Z,7.12
2024-03-11T09:38:39.194Z,6.74
2024-03-11T09:41:15.401Z,6.75
2024-03-11T09:43:50.241Z,6.65
2024-03-11T09:46:22.785Z,6.70
2024-03-11T09:48:55.312Z,6.99
2024-03-11T09:51:24.664Z,7.02
2024-03-11T09:53:55.954Z,7.02
2024-03-11T09:56:25.806Z,7.07
2024-03-11T09:59:00.149Z,7.15
2024-03-11T10:01:32.447Z,7.04
2024-03-11T10:04:02.353Z,6.95
2024-03-11T10:06:35.232Z,7.12
2024-03-11T10:09:04.288Z,6.97
2024-03-11T10:11:39.014Z,6.92
2024-03-11T10:14:27.156Z,6.93
2024-03-11T10:17:10.485Z,6.97
2024-03-11T10:19:47.628Z,6.96
2024-03-11T10:22:26.779Z,6.97
2024-03-11T10:24:57.480Z,7.04
2024-03-11T10:27:32.804Z,6.90
2024-03-11T10:30:20.758Z,7.11
2024-03-11T10:32:54.446Z,7.12
2024-03-11T10:35:28.602Z,7.20
2024-03-11T10:38:14.094Z,6.93
2024-03-11T10:40:46.824Z,7.14
2024-03-11T10:43:22.365Z,7.14
2024-03-11T10:45:52.145Z,7.12
2024-03-11T10:48:27.768Z,7.23
2024-03-11T10:51:03.643Z,7.23
2024-03-11T10:53:33.059Z,7.49
2024-03-11T10:56:06.460Z,7.50
2024-03-11T10:58:45.033Z,7.63
2024-03-11T11:01:18.176Z,7.66
2024-03-11T11:03:53.813Z,7.84
2024-03-11T11:06:28.789Z,7.83
2024-03-11T11:08:58.317Z,8.32
2024-03-11T11:11:31.565Z,8.73
2024-03-11T11:14:04.509Z,9.21
2024-03-11T11:16:34.589Z,9.41
2024-03-11T11:19:11.864Z,8.85
2024-03-11T11:21:44.718Z,9.60
2024-03-11T11:24:32.816Z,9.53
2024-03-11T11:27:08.068Z,9.72
2024-03-11T11:29:37.035Z,9.84
2024-03-11T11:32:10.333Z,10.02
2024-03-11T11:34:57.031Z,10.61
2024-03-11T11:37:42.059Z,10.56
2024-03-11T11:40:41.072Z,9.95
2024-03-11T11:43:23.903Z,10.02
2024-03-11T11:45:57.419Z,10.56
2024-03-11T11:48:29.983Z,10.30
2024-03-11T11:51:03.035Z,9.69
2024-03-11T11:53:48.502Z,9.78
2024-03-11T11:56:34.104Z,9.43
2024-03-11T11:59:07.091Z,9.61
2024-03-11T12:01:53.189Z,9.62
2024-03-11T12:04:54.564Z,9.82
2024-03-11T12:07:39.591Z,9.44
2024-03-11T12:10:12.224Z,9.61
2024-03-11T12:12:46.484Z,9.58
2024-03-11T12:15:29.116Z,9.35
2024-03-11T12:18:06.026Z,9.12
2024-03-11T12:20:37.024Z,9.58
2024-03-11T12:23:10.230Z,9.73
2024-03-11T12:25:43.082Z,9.77
2024-03-11T12:28:18.947Z,9.57
2024-03-11T12:30:52.632Z,9.94
2024-03-11T12:33:24.646Z,9.98
2024-03-11T12:35:53.709Z,9.92
2024-03-11T12:38:41.348Z,9.93
2024-03-11T12:41:14.186Z,10.22
2024-03-11T12:43:50.967Z,9.73
2024-03-11T12:46:35.223Z,9.69
2024-03-11T12:49:07.575Z,9.61
2024-03-11T12:52:02.467Z,9.83
2024-03-11T12:54:58.750Z,9.57
2024-03-11T12:57:40.573Z,9.93
2024-03-11T13:00:12.649Z,9.65
2024-03-11T13:02:43.301Z,9.71
2024-03-11T13:05:15.594Z,9.43
2024-03-11T13:07:44.167Z,9.41
2024-03-11T13:10:20.267Z,9.40
2024-03-11T13:12:51.499Z,9.81
2024-03-11T13:15:20.696Z,9.94
2024-03-11T13:17:50.670Z,9.95
2024-03-11T13:20:38.825Z,10.06
2024-03-11T13:23:11.174Z,10.19
2024-03-11T13:25:42.038Z,10.02
2024-03-11T13:28:13.473Z,10.07
2024-03-11T13:30:44.445Z,9.79
2024-03-11T13:33:14.032Z,9.95
2024-03-11T13:35:46.197Z,9.58
2024-03-11T13:38:15.521Z,9.72
2024-03-11T13:40:45.642Z,9.62
2024-03-11T13:43:14.001Z,9.97
2024-03-11T13:45:42.811Z,9.92
2024-03-11T13:48:13.396Z,9.65
2024-03-11T13:50:48.800Z,9.51
2024-03-11T13:53:19.621Z,9.68
2024-03-11T13:55:50.684Z,9.61
2024-03-11T13:58:36.730Z,9.55
2024-03-11T14:01:13.802Z,9.58
2024-03-11T14:03:47.092Z,9.88
2024-03-11T14:06:21.542Z,9.62
2024-03-11T14:08:52.920Z,9.73
2024-03-11T14:11:26.398Z,9.77
2024-03-11T14:13:55.630Z,9.89
2024-03-11T14:16:25.705Z,9.72
2024-03-11T14:18:55.991Z,10.01
2024-03-11T14:21:26.204Z,10.06
2024-03-11T14:24:08.749Z,9.96
2024-03-11T14:26:39.790Z,9.82
2024-03-11T14:29:14.138Z,9.93
2024-03-11T14:31:46.669Z,9.92
2024-03-11T14:34:29.359Z,9.78
2024-03-11T14:37:00.719Z,10.03
2024-03-11T14:39:34.020Z,9.87
2024-03-11T14:42:05.113Z,10.08
2024-03-11T14:44:33.377Z,10.07
2024-03-11T14:47:04.233Z,9.95
2024-03-11T14:49:35.049Z,9.98
2024-03-11T14:52:06.125Z,9.85
2024-03-11T14:54:34.826Z,9.73
2024-03-11T14:57:04.546Z,9.63
2024-03-11T14:59:38.314Z,9.60
2024-03-11T15:02:08.396Z,9.72
2024-03-11T15:04:42.349Z,9.80
2024-03-11T15:07:11.178Z,9.68
2024-03-11T15:09:44.798Z,9.70
2024-03-11T15:12:17.540Z,9.73
2024-03-11T15:14:47.173Z,9.78
2024-03-11T15:17:19.647Z,9.84
2024-03-11T15:19:48.324Z,9.80
2024-03-11T15:22:17.937Z,9.69
2024-03-11T15:24:46.550Z,9.75
2024-03-11T15:27:23.341Z,9.77
2024-03-11T15:29:54.135Z,9.49
2024-03-11T15:32:24.440Z,9.66
2024-03-11T15:35:03.133Z,9.59
2024-03-11T15:37:32.060Z,9.61
2024-03-11T15:40:06.745Z,9.45
2024-03-11T15:42:41.345Z,9.39
2024-03-11T15:45:19.920Z,9.36
2024-03-11T15:48:20.391Z,9.49
2024-03-11T15:50:57.835Z,9.37
2024-03-11T15:53:57.608Z,9.40
2024-03-11T15:57:05.053Z,9.32
2024-03-11T15:59:40.584Z,9.33
2024-03-11T16:02:11.430Z,9.32
2024-03-11T16:10:23.444Z,9.25
2024-03-11T16:24:45.208Z,9.17
2024-03-11T16:27:15.985Z,9.36
2024-03-11T16:29:44.590Z,9.37
2024-03-11T16:32:19.130Z,9.27
2024-03-11T16:35:06.321Z,9.25
2024-03-11T16:37:48.448Z,9.31
2024-03-11T16:44:18.776Z,9.25
2024-03-11T16:46:57.884Z,9.19
2024-03-11T16:49:41.178Z,9.03
2024-03-11T16:52:11.552Z,9.19
2024-03-11T16:54:41.411Z,9.12
2024-03-11T16:57:59.488Z,9.08
2024-03-11T17:00:37.049Z,9.09
2024-03-11T17:03:06.836Z,9.01
2024-03-11T17:05:40.379Z,8.95
2024-03-11T17:08:15.993Z,8.98
2024-03-11T17:10:47.784Z,8.98
2024-03-11T17:13:49.481Z,8.98
2024-03-11T17:16:26.519Z,8.97
2024-03-11T17:18:54.225Z,8.96
2024-03-11T17:21:34.004Z,8.93
2024-03-11T17:24:04.235Z,8.95
2024-03-11T17:26:46.305Z,8.90
2024-03-11T17:29:18.456Z,8.98
2024-03-11T17:31:48.382Z,8.76
2024-03-11T17:34:21.254Z,8.77
2024-03-11T17:36:50.698Z,8.59
2024-03-11T17:39:21.276Z,8.63
2024-03-11T17:41:49.065Z,8.45
2024-03-11T17:44:18.490Z,8.45
2024-03-11T17:46:47.753Z,8.40
2024-03-11T17:49:17.256Z,8.39
2024-03-11T17:51:50.593Z,8.33
2024-03-11T17:54:26.623Z,8.21
2024-03-11T17:59:45.911Z,8.10
2024-03-11T18:02:16.237Z,8.25
2024-03-11T18:04:45.494Z,8.27
2024-03-11T18:07:12.964Z,8.19
2024-03-11T18:09:45.362Z,8.15
2024-03-11T18:12:14.365Z,8.15
2024-03-11T18:14:44.823Z,8.18
2024-03-11T18:17:17.001Z,8.06
2024-03-11T18:19:48.229Z,8.12
2024-03-11T18:22:16.437Z,8.11
2024-03-11T18:24:49.914Z,8.11
2024-03-11T18:27:18.182Z,8.04
2024-03-11T18:29:55.284Z,8.09
2024-03-11T18:32:26.339Z,8.04
2024-03-11T18:34:56.411Z,7.98
2024-03-11T18:40:40.698Z,7.98
2024-03-11T18:43:18.097Z,8.06
2024-03-11T18:45:50.767Z,8.10
2024-03-11T18:48:20.542Z,7.93
2024-03-11T18:50:56.673Z,8.10
2024-03-11T18:53:41.982Z,8.11
2024-03-11T18:56:22.513Z,7.97
2024-03-11T18:59:06.121Z,8.12
2024-03-11T19:01:39.544Z,7.96
2024-03-11T19:04:10.835Z,7.94
2024-03-11T19:06:39.804Z,7.94
2024-03-11T19:09:14.223Z,8.02
2024-03-11T19:11:47.888Z,8.06
2024-03-11T19:14:18.776Z,8.10
2024-03-11T19:16:52.280Z,8.14
2024-03-11T19:19:24.310Z,8.05
2024-03-11T19:21:55.974Z,8.17
2024-03-11T19:24:28.617Z,8.10
2024-03-11T19:27:04.507Z,8.16
2024-03-11T19:29:52.079Z,8.14
2024-03-11T19:32:35.015Z,8.06
2024-03-11T19:35:11.008Z,7.95
2024-03-11T19:38:30.605Z,8.06
2024-03-11T19:41:25.298Z,8.07
2024-03-11T19:47:47.287Z,8.10
2024-03-11T19:51:08.907Z,8.14
2024-03-11T19:54:23.139Z,8.11
2024-03-11T19:57:41.736Z,8.10
2024-03-11T20:01:23.758Z,8.02
2024-03-11T20:04:50.883Z,8.05
2024-03-11T20:11:37.510Z,8.09
2024-03-11T20:15:15.442Z,7.96
2024-03-11T20:29:40.208Z,8.08
2024-03-11T20:35:21.995Z,8.03
2024-03-11T20:38:21.148Z,8.07
2024-03-11T20:41:02.384Z,7.96
2024-03-11T20:43:38.194Z,8.03
2024-03-11T20:46:09.548Z,7.99
2024-03-11T20:48:45.211Z,7.89
2024-03-11T20:51:21.217Z,7.98
2024-03-11T20:54:06.082Z,7.96
2024-03-11T20:56:41.824Z,8.05
2024-03-11T20:59:22.308Z,7.99
2024-03-11T21:02:11.487Z,7.98
2024-03-11T21:04:53.874Z,7.99
2024-03-11T21:07:46.896Z,7.94
2024-03-11T21:10:55.210Z,7.95
2024-03-11T21:13:39.412Z,8.00
2024-03-11T21:16:54.588Z,7.84
2024-03-11T21:19:50.169Z,7.97
2024-03-11T21:22:37.755Z,7.98
2024-03-11T21:25:54.363Z,8.02
2024-03-11T21:28:31.203Z,7.92
2024-03-11T21:31:07.420Z,7.86
2024-03-11T21:33:53.057Z,7.96
2024-03-11T21:37:12.629Z,7.93
2024-03-11T21:43:26.721Z,7.88
2024-03-11T21:46:11.227Z,7.88
2024-03-11T21:53:24.055Z,7.99
2024-03-11T21:55:56.725Z,7.91
2024-03-11T21:58:28.769Z,7.96
2024-03-11T22:01:00.825Z,7.97
2024-03-11T22:03:36.749Z,7.92
2024-03-11T22:06:09.677Z,7.94
2024-03-11T22:08:52.741Z,7.90
2024-03-11T22:11:26.657Z,7.86
2024-03-11T22:14:00.671Z,7.83
2024-03-11T22:16:46.566Z,7.67
2024-03-11T22:19:18.869Z,7.75
2024-03-11T22:21:50.107Z,7.75
2024-03-11T22:24:29.048Z,7.69
2024-03-11T22:27:06.402Z,7.70
2024-03-11T22:30:04.648Z,7.67
2024-03-11T22:32:36.306Z,7.60
2024-03-11T22:35:10.342Z,7.62
2024-03-11T22:37:40.467Z,7.56
2024-03-11T22:40:12.253Z,7.56
2024-03-11T22:42:47.660Z,7.53
2024-03-11T22:45:17.558Z,7.53
2024-03-11T22:47:46.730Z,7.51
2024-03-11T22:50:17.768Z,7.38
2024-03-11T22:52:46.830Z,7.49
2024-03-11T22:55:15.359Z,7.46
2024-03-11T22:57:44.531Z,7.43
2024-03-11T23:00:28.483Z,7.38
2024-03-11T23:02:56.765Z,7.41
2024-03-11T23:05:34.929Z,7.40
2024-03-11T23:08:07.369Z,7.31
2024-03-11T23:10:41.867Z,7.29
2024-03-11T23:13:12.562Z,7.26
2024-03-11T23:15:42.349Z,7.33
2024-03-11T23:18:13.653Z,7.26
2024-03-11T23:20:54.243Z,7.20
2024-03-11T23:23:26.152Z,7.14
2024-03-11T23:25:57.801Z,7.17
2024-03-11T23:28:28.338Z,7.28
2024-03-11T23:30:59.324Z,7.27
2024-03-11T23:33:28.866Z,7.17
2024-03-11T23:36:00.770Z,7.12
2024-03-11T23:38:34.337Z,7.20
2024-03-11T23:41:04.118Z,7.19
2024-03-11T23:43:32.857Z,7.30
2024-03-11T23:46:02.225Z,7.19
2024-03-11T23:48:34.856Z,7.31
2024-03-11T23:51:05.238Z,7.31
2024-03-11T23:53:33.941Z,7.22
2024-03-11T23:56:04.320Z,7.24
2024-03-11T23:58:34.621Z,7.25
